Time;durP1;ratioP1;P1;durP2;ratioP2;P2;SDS_P1;SDS_P2;PMS_P1;PMS_P2;Temp;Humidity;BMP_temperature;BMP_pressure;BME280_temperature;BME280_humidity;BME280_pressure;Samples;Min_cycle;Max_cycle;Signal;HPM_P1;HPM_P2
2022/02/02 00:01:54;;;;;;;45.43;17.70;;;12.90;2201.60;;;;;;4769662;30;20042;-71
2022/02/02 00:04:24;;;;;;;39.07;18.53;;;12.90;2201.60;;;;;;4769658;30;20040;-71
2022/02/02 00:09:22;;;;;;;33.23;18.47;;;12.90;2201.60;;;;;;4769641;30;20035;-71
2022/02/02 00:17:30;;;;;;;37.87;17.73;;;0.00;2201.60;;;;;;4778351;29;20038;-71
2022/02/02 00:20:12;;;;;;;34.30;17.90;;;0.10;2201.60;;;;;;4807109;29;20042;-71
2022/02/02 00:22:40;;;;;;;36.63;17.10;;;0.10;2201.60;;;;;;4806449;29;20062;-72
2022/02/02 00:25:21;;;;;;;37.23;15.77;;;0.20;2201.60;;;;;;4807153;29;20030;-72
2022/02/02 00:27:52;;;;;;;33.73;15.53;;;0.20;2201.60;;;;;;4790857;29;20444;-71
2022/02/02 00:30:21;;;;;;;38.67;16.67;;;0.00;2201.60;;;;;;4807179;29;20381;-71
2022/02/02 00:35:17;;;;;;;25.73;13.90;;;12.90;2201.60;;;;;;4806954;29;20035;-71
2022/02/02 00:37:42;;;;;;;35.37;15.90;;;12.90;2201.60;;;;;;4806923;29;20076;-71
2022/02/02 00:40:09;;;;;;;35.23;15.30;;;0.00;2201.60;;;;;;4806864;29;20039;-71
2022/02/02 00:42:35;;;;;;;31.13;14.63;;;0.10;2201.60;;;;;;4806859;29;20101;-71
2022/02/02 00:45:02;;;;;;;33.30;14.93;;;0.20;2201.60;;;;;;4806949;29;20380;-73
2022/02/02 00:47:35;;;;;;;35.60;16.33;;;0.20;2201.60;;;;;;4806777;29;20026;-71
2022/02/02 00:50:01;;;;;;;28.33;14.80;;;0.00;2201.60;;;;;;4806946;29;20425;-72
2022/02/02 00:52:27;;;;;;;32.20;15.47;;;12.90;2201.60;;;;;;4806664;29;20031;-71
2022/02/02 00:54:53;;;;;;;24.47;13.30;;;12.90;2201.60;;;;;;4806972;29;20035;-72
2022/02/02 00:57:18;;;;;;;27.13;12.13;;;12.90;2201.60;;;;;;4806719;29;20038;-71
2022/02/02 00:59:44;;;;;;;30.07;15.40;;;12.90;2201.60;;;;;;4806678;29;20063;-71
2022/02/02 01:02:12;;;;;;;32.50;15.10;;;13.00;2201.60;;;;;;4806573;29;20083;-72
2022/02/02 01:04:39;;;;;;;33.77;14.97;;;12.90;2201.60;;;;;;4806552;29;20035;-71
2022/02/02 01:07:16;;;;;;;28.10;14.30;;;12.90;2201.60;;;;;;4806627;29;20030;-71
2022/02/02 01:10:00;;;;;;;29.97;14.87;;;12.90;2201.60;;;;;;4806818;29;20023;-71
2022/02/02 01:20:51;;;;;;;30.77;13.50;;;0.20;2201.60;;;;;;4797984;29;20099;-71
2022/02/02 01:28:38;;;;;;;27.17;13.30;;;0.20;2201.60;;;;;;4806411;29;20080;-71
2022/02/02 01:31:05;;;;;;;34.83;14.60;;;0.20;2201.60;;;;;;4806387;29;20043;-71
2022/02/02 01:33:32;;;;;;;38.13;15.80;;;0.20;2201.60;;;;;;4806847;29;20461;-71
2022/02/02 01:35:59;;;;;;;31.13;14.97;;;0.30;2201.60;;;;;;4809999;29;20026;-71
2022/02/02 01:38:28;;;;;;;36.03;14.23;;;0.30;2201.60;;;;;;4809891;29;20039;-71
2022/02/02 01:41:00;;;;;;;27.00;14.43;;;0.40;2201.60;;;;;;4809954;29;20035;-71
2022/02/02 01:43:33;;;;;;;27.13;14.63;;;0.50;2201.60;;;;;;4810218;29;20027;-71
2022/02/02 01:46:04;;;;;;;35.53;14.02;;;0.50;2201.60;;;;;;4809914;29;20469;-72
2022/02/02 01:48:40;;;;;;;33.80;15.87;;;0.50;2201.60;;;;;;4809856;29;20079;-71
2022/02/02 01:51:26;;;;;;;34.03;15.20;;;0.60;2201.60;;;;;;4810077;29;20168;-71
2022/02/02 01:54:13;;;;;;;38.23;17.07;;;0.60;2201.60;;;;;;4809745;29;20119;-72
2022/02/02 01:56:39;;;;;;;33.73;15.23;;;0.60;2201.60;;;;;;4809715;29;20066;-72
2022/02/02 02:01:34;;;;;;;27.70;13.83;;;0.70;2201.60;;;;;;4809876;29;20031;-72
2022/02/02 02:04:00;;;;;;;29.10;12.87;;;0.70;2201.60;;;;;;4809524;29;20034;-71
2022/02/02 02:06:26;;;;;;;34.47;14.23;;;0.70;2201.60;;;;;;4809752;29;20066;-71
2022/02/02 02:08:53;;;;;;;34.90;15.87;;;0.70;2201.60;;;;;;4809434;29;20031;-71
2022/02/02 02:11:21;;;;;;;41.70;17.87;;;0.80;2201.60;;;;;;4809469;29;20027;-71
2022/02/02 02:16:20;;;;;;;30.40;14.20;;;0.90;2201.60;;;;;;4809645;29;20362;-71
2022/02/02 02:18:46;;;;;;;30.30;14.30;;;0.90;2201.60;;;;;;4793011;29;20042;-71
2022/02/02 02:21:15;;;;;;;31.23;15.50;;;0.90;2201.60;;;;;;4809229;29;20116;-73
2022/02/02 02:23:41;;;;;;;35.10;15.40;;;25.60;2201.60;;;;;;4809245;29;20130;-71
2022/02/02 02:26:09;;;;;;;29.63;14.73;;;25.60;2201.60;;;;;;4809196;29;20102;-72
2022/02/02 02:31:21;;;;;;;31.10;15.87;;;25.60;2201.60;;;;;;4809127;29;20115;-72
2022/02/02 02:59:00;;;;;;;36.67;17.47;;;25.60;2201.60;;;;;;4808684;29;20045;-71
2022/02/02 03:29:50;;;;;;;31.40;14.97;;;25.60;2201.60;;;;;;4808880;29;20122;-71
2022/02/02 04:06:28;;;;;;;36.90;19.47;;;26.00;2201.60;;;;;;4807854;29;20060;-71
2022/02/02 04:08:54;;;;;;;37.97;20.43;;;26.00;2201.60;;;;;;4791233;29;20038;-71
2022/02/02 04:11:31;;;;;;;39.77;20.57;;;26.00;2201.60;;;;;;4807402;29;20027;-72
2022/02/02 04:38:39;;;;;;;24.33;13.50;;;26.30;2201.60;;;;;;4807266;29;20154;-71
2022/02/02 04:52:14;;;;;;;;;;;26.50;2201.60;;;;;;4807518;29;20522;-71
2022/02/02 04:54:54;;;;;;;24.50;11.40;;;51.20;2227.20;;;;;;4806751;29;19909;-71
2022/02/02 05:03:36;;;;;;;22.60;11.90;;;26.50;2201.60;;;;;;4806920;29;20037;-71
2022/02/02 05:05:54;;;;;;;24.40;13.33;;;51.20;2227.20;;;;;;4806386;29;20064;-72
2022/02/02 05:27:10;;;;;;;;;;;51.40;2227.20;;;;;;4806793;29;20168;-71
2022/02/02 05:53:35;;;;;;;;;;;51.40;2227.20;;;;;;4806907;29;20386;-71
2022/02/02 05:56:02;;;;;;;;;;;51.40;2227.20;;;;;;4806532;29;19910;-71
2022/02/02 05:58:28;;;;;;;;;;;51.30;2227.20;;;;;;4790243;29;19924;-71
2022/02/02 06:00:55;;;;;;;;;;;51.40;2227.20;;;;;;4806518;29;19913;-71
2022/02/02 06:03:25;;;;;;;;;;;51.40;2227.20;;;;;;4806530;29;19913;-71
2022/02/02 06:05:51;;;;;;;;;;;51.40;2227.20;;;;;;4806720;29;19909;-71
2022/02/02 06:08:16;;;;;;;;;;;51.50;2227.20;;;;;;4806466;29;19996;-71
2022/02/02 06:10:43;;;;;;;;;;;51.60;2227.20;;;;;;4806413;29;19952;-71
2022/02/02 06:13:09;;;;;;;;;;;51.50;2227.20;;;;;;4806655;29;19963;-71
2022/02/02 06:15:36;;;;;;;;;;;51.50;2227.20;;;;;;4806382;29;19910;-71
2022/02/02 06:18:03;;;;;;;;;;;51.40;2227.20;;;;;;4806291;29;19917;-71
2022/02/02 06:20:29;;;;;;;;;;;51.40;2227.20;;;;;;4806518;29;20327;-72
2022/02/02 06:23:20;;;;;;;;;;;51.40;2227.20;;;;;;4809693;29;19956;-71
2022/02/02 06:25:47;;;;;;;;;;;51.40;2227.20;;;;;;4806825;29;19916;-71
2022/02/02 06:28:23;;;;;;;;;;;51.40;2227.20;;;;;;4809633;29;20022;-71
2022/02/02 06:31:07;;;;;;;;;;;51.40;2227.20;;;;;;4809719;29;20001;-72
2022/02/02 06:33:34;;;;;;;;;;;51.40;2227.20;;;;;;4809613;29;20004;-71
2022/02/02 06:36:00;;;;;;;;;;;51.40;2227.20;;;;;;4809316;29;19916;-73
2022/02/02 06:38:27;;;;;;;;;;;51.40;2227.20;;;;;;4809284;29;19920;-73
2022/02/02 06:40:54;;;;;;;;;;;51.40;2227.20;;;;;;4809348;29;19966;-72
2022/02/02 06:43:21;;;;;;;;;;;51.40;2227.20;;;;;;4809322;29;20324;-72
2022/02/02 06:45:49;;;;;;;;;;;51.50;2227.20;;;;;;4809512;29;20026;-71
2022/02/02 06:48:14;;;;;;;;;;;51.40;2227.20;;;;;;4809258;29;19913;-71
2022/02/02 06:50:43;;;;;;;;;;;51.30;2227.20;;;;;;4809450;29;19916;-74
2022/02/02 06:56:03;;;;;;;;;;;51.20;2227.20;;;;;;4809060;29;20358;-69
2022/02/02 06:58:48;;;;;;;;;;;51.20;2227.20;;;;;;4808506;29;19977;-70
2022/02/02 07:11:41;;;;;;;;;;;51.30;2227.20;;;;;;4808285;29;20317;-70
2022/02/02 07:14:18;;;;;;;;;;;51.40;2227.20;;;;;;4806842;29;20401;-71
2022/02/02 07:17:33;;;;;;;;;;;51.50;2227.20;;;;;;4790187;29;19919;-71
2022/02/02 07:23:05;;;;;;;;;;;52.10;2227.20;;;;;;4787437;29;19921;-70
2022/02/02 07:26:10;;;;;;;;;;;52.10;2227.20;;;;;;4808104;29;20000;-70
2022/02/02 07:31:03;;;;;;;;;;;51.90;2227.20;;;;;;4808403;29;19997;-73
2022/02/02 07:33:35;;;;;;;;;;;51.90;2227.20;;;;;;4808429;29;20031;-69
2022/02/02 07:36:08;;;;;;;;;;;51.90;2227.20;;;;;;4808476;29;20260;-72
2022/02/02 07:38:40;;;;;;;;;;;51.90;2227.20;;;;;;4808544;29;19944;-73
2022/02/02 07:41:08;;;;;;;;;;;51.80;2227.20;;;;;;4808042;29;19910;-70
2022/02/02 07:43:40;;;;;;;;;;;51.90;2227.20;;;;;;4807988;29;20019;-70
2022/02/02 07:46:06;;;;;;;;;;;51.90;2227.20;;;;;;4806457;29;19916;-71
2022/02/02 07:48:34;;;;;;;;;;;51.80;2227.20;;;;;;4807120;29;19916;-69
2022/02/02 07:51:01;;;;;;;;;;;51.90;2227.20;;;;;;4807380;29;19913;-70
2022/02/02 07:53:35;;;;;;;;;;;51.90;2227.20;;;;;;4806853;29;19916;-70
2022/02/02 07:56:03;;;;;;;;;;;51.80;2227.20;;;;;;4807592;29;19931;-72
2022/02/02 07:58:30;;;;;;;;;;;51.80;2227.20;;;;;;4807632;29;20035;-72
2022/02/02 08:00:56;;;;;;;;;;;51.70;2227.20;;;;;;4807894;29;19909;-69
2022/02/02 08:03:24;;;;;;;;;;;51.60;2227.20;;;;;;4808066;29;19909;-72
2022/02/02 08:05:52;;;;;;;;;;;51.50;2227.20;;;;;;4807638;29;19916;-70
2022/02/02 08:10:46;;;;;;;;;;;51.30;2227.20;;;;;;4807354;29;20344;-73
2022/02/02 08:13:21;;;;;;;;;;;51.40;2227.20;;;;;;4807013;29;19920;-73
2022/02/02 08:15:55;;;;;;;;;;;51.40;2227.20;;;;;;4806914;29;19916;-73
2022/02/02 08:18:21;;;;;;;;;;;51.50;2227.20;;;;;;4807081;29;19924;-72
2022/02/02 08:20:48;;;;;;;;;;;51.90;2227.20;;;;;;4806615;29;19917;-73
2022/02/02 08:23:13;;;;;;;;;;;77.00;2227.20;;;;;;4807072;29;19913;-71
2022/02/02 08:25:41;;;;;;;;;;;77.10;2227.20;;;;;;4807253;29;20000;-71
2022/02/02 08:28:08;;;;;;;;;;;77.00;2227.20;;;;;;4790941;29;19917;-72
2022/02/02 08:30:33;;;;;;;;;;;77.40;2227.20;;;;;;4806822;29;19909;-72
2022/02/02 08:33:01;;;;;;;;;;;77.40;2227.20;;;;;;4806704;29;20373;-72
2022/02/02 08:35:30;;;;;;;;;;;77.10;2227.20;;;;;;4806557;29;20419;-71
2022/02/02 08:43:17;;;;;;;;;;;77.30;2227.20;;;;;;4806303;29;19958;-71
2022/02/02 08:45:45;;;;;;;;;;;77.40;2227.20;;;;;;4804922;29;19917;-72
2022/02/02 08:48:16;;;;;;;;;;;102.40;2227.20;;;;;;4806282;29;19913;-70
2022/02/02 08:50:56;;;;;;;;;;;102.50;2227.20;;;;;;4806380;29;20400;-72
2022/02/02 08:58:30;;;;;;;;;;;;;;;;;;4803928;29;19921;-73
2022/02/02 09:00:57;;;;;;;;;;;102.90;2227.20;;;;;;4804134;29;19963;-71
2022/02/02 09:06:09;;;;;;;;;;;128.20;2252.80;;;;;;4805771;29;19947;-73
2022/02/02 09:08:35;;;;;;;;;;;103.20;2227.20;;;;;;4803501;29;19969;-72
2022/02/02 09:24:34;;;;;;;;;;;102.90;2227.20;;;;;;4806422;29;19909;-72
2022/02/02 09:35:00;;;;;;;;;;;103.10;2227.20;;;;;;4806424;29;20309;-72
2022/02/02 09:37:27;;;;;;;;;;;103.10;2227.20;;;;;;4806181;29;20330;-73
2022/02/02 09:40:56;;;;;;;;;;;103.20;2227.20;;;;;;4806116;29;19913;-70
2022/02/02 09:42:39;;;;;;;;;;;103.30;2227.20;;;;;;4803834;29;19909;-70
2022/02/02 09:45:10;;;;;;;;;;;128.10;2252.80;;;;;;4805889;29;19917;-70
2022/02/02 09:47:43;;;;;;;;;;;128.40;2252.80;;;;;;4806228;29;20438;-70
2022/02/02 09:50:23;;;;;;;;;;;128.70;2252.80;;;;;;4806528;29;19910;-71
2022/02/02 09:52:55;;;;;;;;;;;128.70;2252.80;;;;;;4806222;29;20003;-72
2022/02/02 09:58:28;;;;;;;;;;;153.70;2252.80;;;;;;4809819;29;20251;-72
2022/02/02 10:01:29;;;;;;;;;;;153.70;2252.80;;;;;;4809644;29;19975;-70
2022/02/02 10:10:35;;;;;;;;;;;153.90;2252.80;;;;;;4810196;29;19909;-74
2022/02/02 10:15:23;;;;;;;;;;;154.50;2252.80;;;;;;4810172;29;20015;-73
2022/02/02 10:18:02;;;;;;;;;;;154.50;2252.80;;;;;;4809755;29;19917;-73
2022/02/02 10:20:28;;;;;;;;;;;154.30;2252.80;;;;;;4809590;29;19909;-71
2022/02/02 10:22:57;;;;;;;;;;;153.90;2252.80;;;;;;4809676;29;19944;-71
2022/02/02 10:25:33;;;;;;;;;;;153.60;2252.80;;;;;;4809951;29;19952;-71
2022/02/02 10:28:12;;;;;;;;;;;128.90;2252.80;;;;;;4809259;29;19913;-71
2022/02/02 10:30:40;;;;;;;;;;;153.60;2252.80;;;;;;4807501;29;19920;-70
2022/02/02 10:33:10;;;;;;;;;;;153.60;2252.80;;;;;;4809241;29;19959;-72
2022/02/02 10:35:38;;;;;;;;;;;153.60;2252.80;;;;;;4809087;29;19913;-74
2022/02/02 10:38:10;;;;;;;;;;;153.80;2252.80;;;;;;4809410;29;20364;-73
2022/02/02 10:40:45;;;;;;;;;;;154.20;2252.80;;;;;;4809471;29;20018;-72
2022/02/02 10:43:39;;;;;;;;;;;179.30;2252.80;;;;;;4809411;29;19966;-72
2022/02/02 10:46:08;;;;;;;;;;;179.40;2252.80;;;;;;4809377;29;19984;-77
2022/02/02 10:48:40;;;;;;;;;;;179.70;2252.80;;;;;;4808790;29;19981;-76
2022/02/02 10:51:21;;;;;;;;;;;204.80;2252.80;;;;;;4809053;29;20365;-76
2022/02/02 10:57:01;;;;;;;;;;;180.10;2252.80;;;;;;4806602;29;19990;-73
2022/02/02 11:07:05;;;;;;;;;;;154.40;2252.80;;;;;;4805903;29;19920;-70
2022/02/02 11:09:31;;;;;;;;;;;154.30;2252.80;;;;;;4806189;29;19913;-72
2022/02/02 11:11:57;;;;;;;;;;;154.40;2252.80;;;;;;4806635;29;20316;-72
2022/02/02 11:14:31;;;;;;;;;;;154.40;2252.80;;;;;;4806516;29;19913;-72
2022/02/02 11:17:09;;;;;;;;;;;154.50;2252.80;;;;;;4805681;29;20247;-73
2022/02/02 11:19:38;;;;;;;;;;;179.20;2252.80;;;;;;4804862;29;19921;-72
2022/02/02 11:22:20;;;;;;;;;;;179.30;2252.80;;;;;;4806318;29;19929;-71
2022/02/02 11:24:46;;;;;;;;;;;179.60;2252.80;;;;;;4806341;29;19909;-71
2022/02/02 11:27:31;;;;;;;;;;;179.70;2252.80;;;;;;4806588;29;20366;-71
2022/02/02 11:29:56;;;;;;;;;;;179.70;2252.80;;;;;;4805676;29;20378;-73
2022/02/02 11:32:22;;;;;;;;;;;179.90;2252.80;;;;;;4806858;29;19932;-72
2022/02/02 11:34:47;;;;;;;;;;;180.00;2252.80;;;;;;4806934;29;19909;-72
2022/02/02 11:37:13;;;;;;;;;;;180.10;2252.80;;;;;;4807314;29;20381;-71
2022/02/02 11:40:02;;;;;;;;;;;179.90;2252.80;;;;;;4807306;29;19947;-72
2022/02/02 11:42:51;;;;;;;;;;;180.10;2252.80;;;;;;4807546;29;20315;-70
2022/02/02 11:45:32;;;;;;;;;;;205.20;2252.80;;;;;;4807373;29;19909;-70
2022/02/02 11:47:58;;;;;;;;;;;205.00;2252.80;;;;;;4807483;29;19932;-71
2022/02/02 11:50:42;;;;;;;;;;;205.20;2252.80;;;;;;4807295;29;19960;-74
2022/02/02 11:53:08;;;;;;;;;;;230.40;2252.80;;;;;;4806497;29;19936;-70
2022/02/02 11:55:33;;;;;;;;;;;230.50;2252.80;;;;;;4807243;29;20480;-74
2022/02/02 11:58:24;;;;;;;;;;;230.90;2252.80;;;;;;4807197;29;19917;-71
2022/02/02 12:06:24;;;;;;;;;;;230.90;2252.80;;;;;;4807127;29;19916;-71
2022/02/02 12:09:06;;;;;;;;;;;231.20;2176.00;;;;;;4807275;29;20274;-71
2022/02/02 12:21:30;;;;;;;;;;;256.30;2048.00;;;;;;4806369;29;19973;-71
2022/02/02 12:58:12;;;;;;;;;;;205.20;2252.80;;;;;;4788617;30;19920;-74
2022/02/02 13:00:51;;;;;;;;;;;205.20;2252.80;;;;;;4788263;29;19913;-73
2022/02/02 13:03:17;;;;;;;;;;;205.40;2252.80;;;;;;4787852;29;19933;-76
2022/02/02 13:05:45;;;;;;;;;;;230.40;2227.20;;;;;;4787189;29;19917;-74
2022/02/02 13:08:11;;;;;;;;;;;230.40;2252.80;;;;;;4788268;29;19909;-73
2022/02/02 13:10:37;;;;;;;;;;;205.70;2252.80;;;;;;4788083;30;19966;-72
2022/02/02 13:13:32;;;;;;;;;;;205.70;2252.80;;;;;;4787989;30;19949;-74
2022/02/02 13:16:03;;;;;;;;;;;205.60;2252.80;;;;;;4788222;29;19910;-74
2022/02/02 13:18:35;;;;;;;;;;;205.60;2252.80;;;;;;4789754;29;19924;-81
2022/02/02 13:21:15;;;;;;;;;;;205.50;2252.80;;;;;;4792694;29;19916;-75
2022/02/02 13:23:54;;;;;;;;;;;205.40;2252.80;;;;;;4806224;29;19951;-72
2022/02/02 13:29:11;;;;;;;;;;;205.40;2252.80;;;;;;4805961;29;19913;-73
2022/02/02 13:34:20;;;;;;;;;;;205.30;2252.80;;;;;;4806001;29;19909;-72
2022/02/02 13:42:35;;;;;;;;;;;205.30;2252.80;;;;;;4806264;29;19926;-73
2022/02/02 13:42:42;;;;;;;;;;;205.50;2252.80;;;;;;4803648;29;19909;-73
2022/02/02 13:53:09;;;;;;;;;;;332.90;1868.80;;;;;;4799432;29;19909;-66
2022/02/02 13:55:51;;;;;;;;;;;409.90;1587.20;;;;;;4804513;29;19956;-69
2022/02/02 14:01:13;;;;;;;;;;;487.00;1203.20;;;;;;4805557;29;19958;-73
2022/02/02 14:25:38;;;;;;;;;;;359.30;1408.00;;;;;;4802148;29;20381;-73
2022/02/02 14:33:01;;;;;;;;;;;410.10;1305.60;;;;;;4786731;30;19917;-72
2022/02/02 14:35:27;;;;;;;;;;;359.20;1408.00;;;;;;4787619;30;19909;-70
2022/02/02 14:37:53;;;;;;;;;;;333.30;1587.20;;;;;;4792849;29;20341;-74
2022/02/02 14:40:54;;;;;;;;;;;308.00;1638.40;;;;;;4805743;29;20015;-73
2022/02/02 14:43:10;;;;;;;;;;;307.40;1715.20;;;;;;4806590;29;19912;-70
2022/02/02 14:45:40;;;;;;;;;;;307.20;1792.00;;;;;;4809023;29;19909;-71
2022/02/02 14:48:18;;;;;;;;;;;282.30;1740.80;;;;;;4808479;29;19916;-73
2022/02/02 14:51:15;;;;;;;;;;;282.00;1766.40;;;;;;4808484;29;19917;-74
2022/02/02 14:53:57;;;;;;;;;;;281.80;1868.80;;;;;;4808241;29;19975;-74
2022/02/02 15:28:06;;;;;;;;;;;205.30;2022.40;;;;;;4808390;29;20004;-72
2022/02/02 15:30:54;;;;;;;;;;;205.10;1996.80;;;;;;4808584;29;19909;-73
2022/02/02 15:33:25;;;;;;;;;;;204.90;1996.80;;;;;;4808654;29;19959;-74
2022/02/02 15:36:04;;;;;;;;;;;204.80;2048.00;;;;;;4808291;29;19909;-72
2022/02/02 15:38:30;;;;;;;;;;;180.00;2252.80;;;;;;4808306;29;19917;-67
2022/02/02 15:41:05;;;;;;;;;;;179.80;2048.00;;;;;;4807992;29;19916;-72
2022/02/02 16:02:34;;;;;;;;;;;179.20;2176.00;;;;;;4807967;29;19909;-74
2022/02/02 16:05:02;;;;;;;;;;;179.20;2201.60;;;;;;4807738;29;20325;-67
2022/02/02 16:07:29;;;;;;;;;;;179.20;2201.60;;;;;;4807686;29;20363;-66
2022/02/02 16:09:59;;;;;;;;;;;179.30;2201.60;;;;;;4807288;29;19940;-67
2022/02/02 16:36:26;;;;;;;;;;;179.30;2252.80;;;;;;4807384;29;19910;-68
2022/02/02 16:39:10;;;;;;;;;;;179.30;2252.80;;;;;;4807206;29;20355;-67
2022/02/02 16:44:20;;;;;;;;;;;179.30;2252.80;;;;;;4807400;29;19917;-70
2022/02/02 16:46:46;;;;;;;;;;;179.30;2252.80;;;;;;4807161;29;19909;-75
2022/02/02 16:49:12;;;;;;;;;;;179.30;2252.80;;;;;;4807058;29;19961;-73
2022/02/02 16:51:39;;;;;;;;;;;179.40;2252.80;;;;;;4807127;29;19909;-73
2022/02/02 16:54:09;;;;;;;;;;;179.40;2252.80;;;;;;4806870;29;19913;-69
2022/02/02 16:56:55;;;;;;;;;;;179.30;2252.80;;;;;;4806829;29;20057;-73
2022/02/02 17:32:43;;;;;;;;;;;154.30;2252.80;;;;;;4805732;29;19974;-73
2022/02/02 17:34:45;;;;;;;;;;;154.20;2252.80;;;;;;4798073;29;19966;-74
2022/02/02 17:45:27;;;;;;;;;;;153.90;2252.80;;;;;;4805914;29;19909;-74
2022/02/02 18:20:44;;;;;;;;;;;128.80;2252.80;;;;;;4809427;29;20355;-75
2022/02/02 18:23:41;;;;;;;;;;;128.80;2252.80;;;;;;4792422;29;20062;-74
2022/02/02 18:28:45;;;;;;;;;;;128.70;2252.80;;;;;;4808964;29;20050;-75
2022/02/02 18:31:41;;;;;;;;;;;128.60;2252.80;;;;;;4808831;29;20037;-75
2022/02/02 18:50:24;;;;;;;;;;;128.50;2252.80;;;;;;4808911;29;19948;-76
2022/02/02 18:58:16;;;;;;;;;;;128.30;2252.80;;;;;;4808359;29;19917;-75
2022/02/02 19:01:14;;;;;;;;;;;128.30;2252.80;;;;;;4792286;29;19913;-74
2022/02/02 19:31:15;;;;;;;;;;;128.00;2252.80;;;;;;4807769;29;19993;-75
2022/02/02 19:53:03;;;;;;;;;;;103.30;2227.20;;;;;;4805633;29;19974;-75
2022/02/02 19:55:33;;;;;;;;;;;103.20;2227.20;;;;;;4804571;29;19925;-75
2022/02/02 20:09:24;;;;;;;;;;;103.20;2227.20;;;;;;4806846;29;19909;-77
2022/02/02 20:11:50;;;;;;;;;;;103.10;2227.20;;;;;;4807864;29;20386;-71
2022/02/02 20:14:16;;;;;;;;;;;103.10;2227.20;;;;;;4807183;29;19909;-76
2022/02/02 20:16:42;;;;;;;;;;;103.10;2227.20;;;;;;4807373;29;20381;-70
2022/02/02 20:19:10;;;;;;;;;;;103.10;2227.20;;;;;;4807059;29;20007;-72
2022/02/02 20:21:44;;;;;;;;;;;103.00;2227.20;;;;;;4807569;29;19983;-75
2022/02/02 20:24:10;;;;;;;;;;;103.00;2227.20;;;;;;4807383;29;19917;-71
2022/02/02 20:26:37;;;;;;;;;;;103.00;2227.20;;;;;;4807392;29;19909;-75
2022/02/02 20:29:03;;;;;;;;;;;103.00;2227.20;;;;;;4790872;29;20285;-71
2022/02/02 20:31:32;;;;;;;;;;;103.00;2227.20;;;;;;4806565;29;20296;-72
2022/02/02 20:33:58;;;;;;;;;;;103.00;2227.20;;;;;;4806524;29;19916;-71
2022/02/02 20:36:24;;;;;;;;;;;103.00;2227.20;;;;;;4806214;29;20359;-72
2022/02/02 20:38:50;;;;;;;;;;;103.00;2227.20;;;;;;4806179;29;19924;-70
2022/02/02 20:41:16;;;;;;;;;;;103.00;2227.20;;;;;;4805919;29;19925;-72
2022/02/02 20:44:02;;;;;;;;;;;102.90;2227.20;;;;;;4806195;29;20295;-72
2022/02/02 21:00:52;;;;;;;;;;;102.80;2227.20;;;;;;4807237;29;19928;-70
2022/02/02 21:03:33;;;;;;;;;;;102.80;2227.20;;;;;;4806773;29;19920;-70
2022/02/02 21:11:14;;;;;;;;;;;102.90;2227.20;;;;;;4806594;29;19935;-71
2022/02/02 21:13:43;;;;;;;;;;;102.80;2227.20;;;;;;4806750;29;19913;-72
2022/02/02 21:16:09;;;;;;;;;;;102.80;2227.20;;;;;;4806837;29;20353;-73
2022/02/02 21:18:38;;;;;;;;;;;102.80;2227.20;;;;;;4806996;29;19924;-72
2022/02/02 21:21:14;;;;;;;;;;;102.70;2227.20;;;;;;4806534;29;19938;-74
2022/02/02 21:28:32;;;;;;;;;;;102.60;2227.20;;;;;;4806694;29;20255;-74
2022/02/02 21:30:58;;;;;;;;;;;102.60;2227.20;;;;;;4806077;29;19909;-72
2022/02/02 21:33:23;;;;;;;;;;;102.60;2227.20;;;;;;4806083;29;20389;-73
2022/02/02 21:35:50;;;;;;;;;;;102.60;2227.20;;;;;;4806057;29;19909;-73
2022/02/02 21:40:52;;;;;;;;;;;102.60;2227.20;;;;;;4804201;29;19978;-73
2022/02/02 21:43:19;;;;;;;;;;;102.60;2227.20;;;;;;4806431;29;21351;-73
2022/02/02 21:45:45;;;;;;;;;;;102.50;2227.20;;;;;;4803787;29;19920;-74
2022/02/02 21:48:10;;;;;;;;;;;102.50;2227.20;;;;;;4806200;29;19909;-74
2022/02/02 21:51:20;;;;;;;;;;;102.50;2227.20;;;;;;4806993;29;19909;-73
2022/02/02 21:53:28;;;;;;;;;;;102.50;2227.20;;;;;;4806975;29;20011;-73
2022/02/02 21:55:54;;;;;;;;;;;102.50;2227.20;;;;;;4809818;29;20058;-73
2022/02/02 21:58:21;;;;;;;;;;;102.50;2227.20;;;;;;4809610;29;19922;-73
2022/02/02 22:00:47;;;;;;;;;;;102.50;2227.20;;;;;;4809785;29;20311;-72
2022/02/02 22:03:12;;;;;;;;;;;102.50;2227.20;;;;;;4793426;29;20027;-72
2022/02/02 22:05:38;;;;;;;;;;;102.60;2227.20;;;;;;4809683;29;19939;-73
2022/02/02 22:08:08;;;;;;;;;;;102.60;2227.20;;;;;;4807196;29;20355;-74
2022/02/02 22:10:34;;;;;;;;;;;102.60;2227.20;;;;;;4809535;29;20271;-74
2022/02/02 22:13:00;;;;;;;;;;;102.60;2227.20;;;;;;4809710;29;19909;-72
2022/02/02 22:15:30;;;;;;;;;;;102.60;2227.20;;;;;;4809432;29;20320;-73
2022/02/02 22:17:56;;;;;;;;;;;102.60;2227.20;;;;;;4809379;29;20012;-72
2022/02/02 22:20:22;;;;;;;;;;;102.60;2227.20;;;;;;4809842;29;19999;-72
2022/02/02 22:22:48;;;;;;;;;;;102.60;2227.20;;;;;;4793283;29;20050;-73
2022/02/02 22:25:14;;;;;;;;;;;102.60;2227.20;;;;;;4809703;29;19909;-72
2022/02/02 22:27:40;;;;;;;;;;;102.60;2227.20;;;;;;4809737;29;19916;-72
2022/02/02 22:30:07;;;;;;;;;;;102.60;2227.20;;;;;;4809127;29;20267;-72
2022/02/02 22:32:33;;;;;;;;;;;102.60;2227.20;;;;;;4809906;29;20286;-73
2022/02/02 22:34:59;;;;;;;;;;;102.70;2227.20;;;;;;4809573;29;20362;-74
2022/02/02 22:37:26;;;;;;;;;;;102.60;2227.20;;;;;;4809531;29;20087;-72
2022/02/02 22:39:52;;;;;;;;;;;102.60;2227.20;;;;;;4809652;29;19917;-72
2022/02/02 22:42:21;;;;;;;;;;;102.60;2227.20;;;;;;4809434;29;20046;-72
2022/02/02 22:44:47;;;;;;;;;;;102.60;2227.20;;;;;;4809730;29;19909;-72
2022/02/02 22:47:14;;;;;;;;;;;102.60;2227.20;;;;;;4809413;29;19916;-72
2022/02/02 22:49:43;;;;;;;;;;;102.60;2227.20;;;;;;4809352;29;19966;-73
2022/02/02 22:52:10;;;;;;;;;;;102.60;2227.20;;;;;;4809590;29;20381;-71
2022/02/02 22:54:39;;;;;;;;;;;102.60;2227.20;;;;;;4809239;29;19916;-72
2022/02/02 22:57:05;;;;;;;;;;;102.50;2227.20;;;;;;4809422;29;20354;-72
2022/02/02 22:59:31;;;;;;;;;;;102.50;2227.20;;;;;;4809317;29;19928;-72
2022/02/02 23:02:04;;;;;;;;;;;102.50;2227.20;;;;;;4808721;29;20000;-72
2022/02/02 23:04:30;;;;;;;;;;;102.50;2227.20;;;;;;4808939;29;19909;-72
2022/02/02 23:07:01;;;;;;;;;;;102.50;2227.20;;;;;;4809114;29;20015;-73
2022/02/02 23:09:27;;;;;;;;;;;102.50;2227.20;;;;;;4809097;29;20004;-72
2022/02/02 23:11:53;;;;;;;;;;;102.40;2227.20;;;;;;4808928;29;19916;-73
2022/02/02 23:14:23;;;;;;;;;;;102.40;2227.20;;;;;;4809135;29;19913;-72
2022/02/02 23:16:51;;;;;;;;;;;102.50;2227.20;;;;;;4808915;29;19916;-73
2022/02/02 23:19:17;;;;;;;;;;;102.50;2227.20;;;;;;4808725;29;19917;-72
2022/02/02 23:21:47;;;;;;;;;;;102.40;2227.20;;;;;;4808665;29;19927;-71
2022/02/02 23:24:13;;;;;;;;;;;102.50;2227.20;;;;;;4792551;29;20019;-71
2022/02/02 23:26:40;;;;;;;;;;;102.40;2227.20;;;;;;4808998;29;20370;-72
2022/02/02 23:29:35;;;;;;;;;;;102.40;2227.20;;;;;;4808696;29;19939;-71
2022/02/02 23:32:01;;;;;;;;;;;102.40;2227.20;;;;;;4808652;29;20351;-73
2022/02/02 23:34:27;;;;;;;;;;;102.40;2227.20;;;;;;4808611;29;19934;-73
2022/02/02 23:36:53;;;;;;;;;;;102.40;2227.20;;;;;;4808590;29;19910;-72
2022/02/02 23:39:19;;;;;;;;;;;102.40;2227.20;;;;;;4792192;29;20286;-71
2022/02/02 23:42:36;;;;;;;;;;;102.40;2227.20;;;;;;4808529;29;20382;-72
2022/02/02 23:44:32;;;;;;;;;;;102.40;2227.20;;;;;;4801638;29;20321;-72
2022/02/02 23:46:58;;;;;;;;;;;77.70;2227.20;;;;;;4808400;29;19908;-71
2022/02/02 23:49:34;;;;;;;;;;;77.70;2227.20;;;;;;4808598;29;19932;-71
2022/02/02 23:52:02;;;;;;;;;;;77.70;2227.20;;;;;;4808259;29;19909;-72
2022/02/02 23:54:29;;;;;;;;;;;77.70;2227.20;;;;;;4808246;29;19915;-72
2022/02/02 23:57:05;;;;;;;;;;;77.70;2227.20;;;;;;4808232;29;20516;-71
2022/02/02 23:59:51;;;;;;;;;;;77.70;2227.20;;;;;;4808111;29;19946;-71
